createdAt,value
2022-09-16T00:00:54.369Z,14.00
2022-09-16T00:04:36.139Z,13.90
2022-09-16T00:08:19.597Z,13.90
2022-09-16T00:12:01.454Z,13.90
2022-09-16T00:15:49.153Z,13.80
2022-09-16T00:19:31.757Z,13.80
2022-09-16T00:23:13.783Z,13.70
2022-09-16T00:26:55.894Z,13.60
2022-09-16T00:30:37.772Z,13.50
2022-09-16T00:34:19.689Z,13.50
2022-09-16T00:38:01.622Z,13.40
2022-09-16T00:41:44.269Z,13.30
2022-09-16T00:45:31.806Z,13.30
2022-09-16T00:49:35.037Z,13.20
2022-09-16T00:53:22.156Z,13.20
2022-09-16T00:57:05.185Z,13.10
2022-09-16T01:00:47.651Z,13.00
2022-09-16T01:04:34.647Z,13.00
2022-09-16T01:08:16.522Z,12.90
2022-09-16T01:11:58.432Z,12.90
2022-09-16T01:16:03.112Z,12.80
2022-09-16T01:20:06.352Z,12.70
2022-09-16T01:24:17.720Z,12.50
2022-09-16T01:28:24.157Z,12.50
2022-09-16T01:32:45.286Z,12.40
2022-09-16T01:36:42.141Z,12.40
2022-09-16T01:40:56.390Z,12.30
2022-09-16T01:44:46.636Z,12.20
2022-09-16T01:48:39.679Z,12.10
2022-09-16T01:52:52.946Z,12.10
2022-09-16T01:56:57.957Z,12.00
2022-09-16T02:00:43.079Z,12.00
2022-09-16T02:04:33.981Z,11.90
2022-09-16T02:08:34.942Z,11.80
2022-09-16T02:12:23.568Z,11.80
2022-09-16T02:16:11.723Z,11.70
2022-09-16T02:20:06.774Z,11.60
2022-09-16T02:23:52.216Z,11.60
2022-09-16T02:27:35.955Z,11.50
2022-09-16T02:31:22.268Z,11.40
2022-09-16T02:35:06.262Z,11.40
2022-09-16T02:38:56.977Z,11.30
2022-09-16T02:42:38.815Z,11.30
2022-09-16T02:46:23.494Z,11.20
2022-09-16T02:50:25.455Z,11.10
2022-09-16T02:54:18.038Z,11.10
2022-09-16T02:58:00.770Z,11.00
2022-09-16T03:01:45.213Z,11.00
2022-09-16T03:05:30.367Z,11.00
2022-09-16T03:09:14.308Z,10.90
2022-09-16T03:13:14.791Z,10.90
2022-09-16T03:17:24.048Z,10.80
2022-09-16T03:21:29.413Z,10.70
2022-09-16T03:25:23.179Z,10.70
2022-09-16T03:29:13.248Z,10.70
2022-09-16T03:33:10.076Z,10.80
2022-09-16T03:36:58.715Z,10.80
2022-09-16T03:40:42.458Z,10.80
2022-09-16T03:44:35.289Z,10.80
2022-09-16T03:48:17.139Z,10.90
2022-09-16T03:51:59.333Z,10.90
2022-09-16T03:55:41.227Z,11.00
2022-09-16T03:59:23.048Z,11.00
2022-09-16T04:03:05.096Z,11.00
2022-09-16T04:06:46.955Z,11.00
2022-09-16T04:10:28.703Z,11.10
2022-09-16T04:14:11.174Z,11.10
2022-09-16T04:17:52.968Z,11.10
2022-09-16T04:21:34.781Z,11.10
2022-09-16T04:25:16.624Z,11.10
2022-09-16T04:28:58.991Z,11.10
2022-09-16T04:32:41.288Z,11.10
2022-09-16T04:36:23.108Z,11.10
2022-09-16T04:40:05.468Z,11.10
2022-09-16T04:43:50.787Z,11.20
2022-09-16T04:47:32.597Z,11.20
2022-09-16T04:51:14.963Z,11.20
2022-09-16T04:54:58.393Z,11.20
2022-09-16T04:58:40.327Z,11.10
2022-09-16T05:02:22.142Z,11.10
2022-09-16T05:06:24.866Z,11.10
2022-09-16T05:10:07.215Z,11.00
2022-09-16T05:13:49.360Z,11.00
2022-09-16T05:17:50.430Z,11.00
2022-09-16T05:21:37.622Z,11.00
2022-09-16T05:25:19.482Z,11.00
2022-09-16T05:29:07.474Z,11.00
2022-09-16T05:32:54.496Z,11.00
2022-09-16T05:36:38.846Z,11.00
2022-09-16T05:40:21.081Z,11.00
2022-09-16T05:44:03.476Z,10.90
2022-09-16T05:47:51.634Z,10.90
2022-09-16T05:51:33.476Z,10.90
2022-09-16T05:55:15.295Z,10.80
2022-09-16T05:59:00.110Z,10.80
2022-09-16T06:02:41.980Z,10.80
2022-09-16T06:06:23.793Z,10.70
2022-09-16T06:10:06.134Z,10.70
2022-09-16T06:13:52.084Z,10.70
2022-09-16T06:17:34.024Z,10.70
2022-09-16T06:21:15.767Z,10.60
2022-09-16T06:24:57.573Z,10.70
2022-09-16T06:28:39.664Z,10.70
2022-09-16T06:32:21.525Z,10.70
2022-09-16T06:36:08.738Z,10.70
2022-09-16T06:39:50.780Z,10.70
2022-09-16T06:43:33.339Z,10.80
2022-09-16T06:47:15.107Z,10.80
2022-09-16T06:51:06.948Z,10.90
2022-09-16T06:54:48.793Z,10.90
2022-09-16T06:58:35.387Z,10.90
2022-09-16T07:02:17.659Z,11.00
2022-09-16T07:06:01.944Z,11.00
2022-09-16T07:09:43.744Z,11.10
2022-09-16T07:13:26.089Z,11.20
2022-09-16T07:17:09.075Z,11.30
2022-09-16T07:20:50.967Z,11.30
2022-09-16T07:24:32.845Z,11.40
2022-09-16T07:28:14.612Z,11.40
2022-09-16T07:31:56.423Z,11.50
2022-09-16T07:35:38.234Z,11.60
2022-09-16T07:39:21.262Z,11.60
2022-09-16T07:43:03.133Z,11.70
2022-09-16T07:46:45.088Z,11.80
2022-09-16T07:50:26.880Z,11.80
2022-09-16T07:54:11.383Z,11.90
2022-09-16T07:57:53.686Z,11.90
2022-09-16T08:01:37.943Z,12.00
2022-09-16T08:05:24.610Z,12.10
2022-09-16T08:09:27.197Z,12.20
2022-09-16T08:13:09.017Z,12.30
2022-09-16T08:16:51.578Z,12.40
2022-09-16T08:20:33.556Z,12.60
2022-09-16T08:24:16.501Z,12.90
2022-09-16T08:27:58.294Z,13.40
2022-09-16T08:31:40.174Z,13.50
2022-09-16T08:35:22.057Z,13.60
2022-09-16T08:39:04.376Z,13.60
2022-09-16T08:43:04.659Z,13.70
2022-09-16T08:47:01.513Z,13.70
2022-09-16T08:50:45.431Z,13.60
2022-09-16T08:54:45.261Z,13.60
2022-09-16T08:58:35.892Z,13.70
2022-09-16T09:06:42.988Z,13.90
2022-09-16T09:10:52.831Z,14.10
2022-09-16T09:14:49.913Z,14.30
2022-09-16T09:19:00.345Z,14.60
2022-09-16T09:23:17.536Z,14.70
2022-09-16T09:27:15.703Z,14.80
2022-09-16T09:31:24.972Z,15.00
2022-09-16T09:35:21.591Z,15.20
2022-09-16T09:39:09.742Z,15.70
2022-09-16T09:43:20.478Z,16.50
2022-09-16T09:47:09.001Z,17.40
2022-09-16T09:50:52.623Z,18.10
2022-09-16T09:54:36.161Z,18.80
2022-09-16T09:58:25.004Z,19.70
2022-09-16T10:02:22.631Z,20.80
2022-09-16T10:06:04.583Z,21.90
2022-09-16T10:09:59.107Z,22.80
2022-09-16T10:14:07.729Z,23.20
2022-09-16T10:17:52.027Z,23.70
2022-09-16T10:21:47.661Z,24.20
2022-09-16T10:25:30.703Z,24.50
2022-09-16T10:29:17.794Z,24.60
2022-09-16T10:33:31.043Z,24.70
2022-09-16T10:37:13.043Z,25.00
2022-09-16T10:41:06.138Z,24.80
2022-09-16T10:44:51.406Z,24.50
2022-09-16T10:48:35.329Z,24.60
2022-09-16T10:52:21.971Z,25.00
2022-09-16T10:56:19.292Z,25.50
2022-09-16T11:00:01.022Z,26.10
2022-09-16T11:03:45.816Z,26.30
2022-09-16T11:07:36.680Z,26.40
2022-09-16T11:11:42.645Z,26.50
2022-09-16T11:15:42.375Z,26.60
2022-09-16T11:19:33.478Z,27.40
2022-09-16T11:23:58.499Z,27.40
2022-09-16T11:27:43.092Z,27.70
2022-09-16T11:31:48.073Z,28.10
2022-09-16T11:35:34.943Z,27.60
2022-09-16T11:39:41.248Z,26.90
2022-09-16T11:43:37.319Z,26.50
2022-09-16T11:47:41.920Z,26.20
2022-09-16T11:51:39.033Z,25.60
2022-09-16T11:55:45.711Z,24.80
2022-09-16T11:59:51.909Z,24.00
2022-09-16T12:03:53.388Z,23.40
2022-09-16T12:08:12.297Z,23.20
2022-09-16T12:12:04.036Z,24.50
2022-09-16T12:15:51.252Z,25.10
2022-09-16T12:19:45.261Z,25.10
2022-09-16T12:23:35.105Z,24.70
2022-09-16T12:27:34.166Z,25.00
2022-09-16T12:31:46.097Z,26.30
2022-09-16T12:35:41.087Z,27.80
2022-09-16T12:39:22.855Z,28.30
2022-09-16T12:43:24.226Z,28.20
2022-09-16T12:47:18.082Z,27.70
2022-09-16T12:51:05.240Z,26.70
2022-09-16T12:55:17.312Z,25.80
2022-09-16T12:59:17.131Z,25.40
2022-09-16T13:03:13.776Z,26.10
2022-09-16T13:07:01.360Z,27.40
2022-09-16T13:11:19.294Z,28.40
2022-09-16T13:14:59.020Z,29.40
2022-09-16T13:18:50.692Z,29.80
2022-09-16T13:22:45.012Z,28.90
2022-09-16T13:26:37.712Z,27.80
2022-09-16T13:30:29.755Z,28.00
2022-09-16T13:34:16.304Z,28.90
2022-09-16T13:38:00.466Z,29.70
2022-09-16T13:41:47.629Z,30.40
2022-09-16T13:45:36.563Z,30.40
2022-09-16T13:49:27.834Z,30.40
2022-09-16T13:53:23.170Z,30.20
2022-09-16T13:57:12.096Z,30.00
2022-09-16T14:01:28.043Z,30.40
2022-09-16T14:05:55.940Z,30.80
2022-09-16T14:09:55.253Z,30.70
2022-09-16T14:13:41.409Z,30.80
2022-09-16T14:17:27.571Z,30.70
2022-09-16T14:21:21.408Z,29.70
2022-09-16T14:25:19.023Z,28.90
2022-09-16T14:29:05.498Z,29.10
2022-09-16T14:32:48.777Z,29.20
2022-09-16T14:36:37.879Z,28.60
2022-09-16T14:40:23.438Z,27.80
2022-09-16T14:44:22.698Z,27.00
2022-09-16T14:48:09.624Z,26.30
2022-09-16T14:52:04.565Z,25.70
2022-09-16T14:55:49.661Z,26.00
2022-09-16T14:59:38.102Z,26.80
2022-09-16T15:03:38.051Z,27.30
2022-09-16T15:07:34.258Z,27.90
2022-09-16T15:12:46.679Z,28.40
2022-09-16T15:15:28.675Z,28.60
2022-09-16T15:19:21.258Z,28.80
2022-09-16T15:23:03.779Z,29.00
2022-09-16T15:26:47.217Z,28.90
2022-09-16T15:30:30.723Z,28.80
2022-09-16T15:34:18.756Z,28.60
2022-09-16T15:38:13.807Z,28.50
2022-09-16T15:42:17.181Z,28.20
2022-09-16T15:46:02.398Z,27.90
2022-09-16T15:49:45.161Z,27.40
2022-09-16T15:53:29.632Z,26.80
2022-09-16T15:57:29.219Z,25.90
2022-09-16T16:01:20.822Z,24.90
2022-09-16T16:05:12.884Z,24.10
2022-09-16T16:08:54.844Z,23.70
2022-09-16T16:12:37.180Z,23.40
2022-09-16T16:16:19.507Z,23.20
2022-09-16T16:20:02.306Z,23.00
2022-09-16T16:23:44.257Z,22.80
2022-09-16T16:27:26.216Z,22.50
2022-09-16T16:31:10.340Z,22.20
2022-09-16T16:34:52.213Z,22.00
2022-09-16T16:38:34.016Z,21.80
2022-09-16T16:42:16.326Z,21.70
2022-09-16T16:45:58.712Z,21.60
2022-09-16T16:49:40.647Z,21.50
2022-09-16T16:53:22.734Z,21.50
2022-09-16T16:57:04.907Z,21.50
2022-09-16T17:00:48.552Z,21.40
2022-09-16T17:04:30.399Z,21.30
2022-09-16T17:08:12.187Z,21.10
2022-09-16T17:11:59.583Z,20.90
2022-09-16T17:15:41.461Z,20.70
2022-09-16T17:19:26.067Z,20.60
2022-09-16T17:23:08.113Z,20.40
2022-09-16T17:26:50.039Z,20.30
2022-09-16T17:30:32.114Z,20.10
2022-09-16T17:34:15.643Z,20.00
2022-09-16T17:37:57.429Z,19.90
2022-09-16T17:41:39.543Z,19.80
2022-09-16T17:45:21.334Z,19.70
2022-09-16T17:49:08.085Z,19.50
2022-09-16T17:52:49.952Z,19.40
2022-09-16T17:56:31.734Z,19.30
2022-09-16T18:00:14.362Z,19.20
2022-09-16T18:03:56.633Z,19.00
2022-09-16T18:07:38.540Z,18.90
2022-09-16T18:11:21.660Z,18.80
2022-09-16T18:15:03.769Z,18.70
2022-09-16T18:18:46.676Z,18.50
2022-09-16T18:22:28.440Z,18.40
2022-09-16T18:26:13.333Z,18.30
2022-09-16T18:29:55.109Z,18.20
2022-09-16T18:33:37.354Z,18.00
2022-09-16T18:37:19.153Z,17.90
2022-09-16T18:41:09.215Z,17.90
2022-09-16T18:44:51.137Z,17.70
2022-09-16T18:48:32.951Z,17.60
2022-09-16T18:52:14.775Z,17.50
2022-09-16T18:55:56.688Z,17.30
2022-09-16T18:59:38.488Z,17.20
2022-09-16T19:03:23.015Z,17.10
2022-09-16T19:07:08.135Z,17.00
2022-09-16T19:10:50.967Z,16.90
2022-09-16T19:14:33.084Z,16.80
2022-09-16T19:18:14.869Z,16.70
2022-09-16T19:21:57.052Z,16.60
2022-09-16T19:25:38.859Z,16.50
2022-09-16T19:29:22.009Z,16.40
2022-09-16T19:33:03.876Z,16.30
2022-09-16T19:36:45.738Z,16.20
2022-09-16T19:40:29.204Z,16.10
2022-09-16T19:44:16.700Z,16.10
2022-09-16T19:47:58.613Z,16.00
2022-09-16T19:51:40.385Z,15.90
2022-09-16T19:55:22.176Z,15.80
2022-09-16T19:59:04.197Z,15.70
2022-09-16T20:02:46.171Z,15.70
2022-09-16T20:06:37.828Z,15.60
2022-09-16T20:10:20.837Z,15.50
2022-09-16T20:14:05.945Z,15.40
2022-09-16T20:17:47.726Z,15.30
2022-09-16T20:21:34.962Z,15.30
2022-09-16T20:25:23.452Z,15.20
2022-09-16T20:29:05.701Z,15.10
2022-09-16T20:32:47.555Z,15.10
2022-09-16T20:36:31.151Z,15.00
2022-09-16T20:40:13.045Z,14.90
2022-09-16T20:43:55.458Z,14.90
2022-09-16T20:47:37.559Z,14.80
2022-09-16T20:51:21.475Z,14.80
2022-09-16T20:55:06.347Z,14.70
2022-09-16T20:58:48.676Z,14.60
2022-09-16T21:02:30.505Z,14.60
2022-09-16T21:06:14.675Z,14.50
2022-09-16T21:09:56.996Z,14.50
2022-09-16T21:13:43.605Z,14.40
2022-09-16T21:17:25.440Z,14.30
2022-09-16T21:21:12.264Z,14.20
2022-09-16T21:24:54.047Z,14.20
2022-09-16T21:28:35.964Z,14.10
2022-09-16T21:32:17.758Z,14.10
2022-09-16T21:35:59.855Z,14.00
2022-09-16T21:39:41.643Z,14.00
2022-09-16T21:43:27.197Z,13.90
2022-09-16T21:47:11.520Z,13.80
2022-09-16T21:51:00.832Z,13.70
2022-09-16T21:54:42.602Z,13.70
2022-09-16T21:58:24.474Z,13.60
2022-09-16T22:02:06.270Z,13.60
2022-09-16T22:05:48.098Z,13.50
2022-09-16T22:09:30.518Z,13.40
2022-09-16T22:13:12.295Z,13.40
2022-09-16T22:17:03.272Z,13.30
2022-09-16T22:20:45.112Z,13.20
2022-09-16T22:24:26.990Z,13.10
2022-09-16T22:28:08.777Z,13.00
2022-09-16T22:31:50.759Z,12.90
2022-09-16T22:35:34.413Z,12.70
2022-09-16T22:39:20.862Z,12.60
2022-09-16T22:43:02.717Z,12.50
2022-09-16T22:46:46.967Z,12.40
2022-09-16T22:50:28.963Z,12.20
2022-09-16T22:54:12.560Z,12.10
2022-09-16T22:57:54.340Z,12.00
2022-09-16T23:01:39.521Z,11.90
2022-09-16T23:05:21.481Z,11.80
2022-09-16T23:09:04.390Z,11.80
2022-09-16T23:12:46.250Z,11.70
2022-09-16T23:16:34.421Z,11.60
2022-09-16T23:20:16.331Z,11.60
2022-09-16T23:24:00.896Z,11.50
2022-09-16T23:27:42.668Z,11.40
2022-09-16T23:31:27.553Z,11.30
2022-09-16T23:35:10.103Z,11.20
2022-09-16T23:38:52.858Z,11.20
2022-09-16T23:42:37.281Z,11.10
2022-09-16T23:46:20.990Z,11.00
2022-09-16T23:50:03.685Z,10.80
2022-09-16T23:53:45.593Z,10.70
2022-09-16T23:57:27.474Z,10.60
